Portada
METAR-TAF:

METAR-TAF

Aeropuertos :

Mécheria, Argelia

latitud: 34-56N, longitud: 000-26W, altitud: 1149 m

Observación

El informe se hizo hace 52 minutos, a las 01:00 UTC
Viento 10 kt del este-sureste
Temperatura 11°C
Humedad 43%
Presión 1020 hPa
Visibilidad: 5000 m

METAR: DAAY 020100Z 11010KT 5000 NSC 11/M01 Q1020

Hora: 02:52 (01:52 UTC)

Pronóstico

El informe se hizo hace 2 horas y 52 minutos, a las 23:00 UTC
Pronóstico válido del 02 a las 00 UTC al 02 a las 09 UTC
Viento 10 kt del este-sureste
Visibilidad: 6000 m

TAF: DAAY 012300Z 0200/0209 12010KT 6000 NSC

Observaciones y pronósticos meteorológicos de más de 4000 aeropuertos (mensajes METAR y TAF).

Los puntos amarillos y rojos representan las estaciones disponibles.

Ponga el ratón en el punto deseado para ver el nombre de la estación.

Haga clic para ver las observaciones y los pronósticos meteorológicos.

Para cambiar el mapa : haga clic en los botones verdes con una cruz de color negro para hacer un zoom, en el botón verde con un guión para alejar o en las flechas verdes para mapas adyacentes.


METAR-TAF: